createdAt,value
2018-02-16T00:02:04.542Z,99.30
2018-02-16T00:04:31.070Z,99.90
2018-02-16T00:06:57.819Z,99.30
2018-02-16T00:09:25.046Z,99.40
2018-02-16T00:11:51.424Z,99.60
2018-02-16T00:14:19.439Z,99.30
2018-02-16T00:16:46.779Z,99.90
2018-02-16T00:19:13.218Z,99.90
2018-02-16T00:21:39.666Z,99.90
2018-02-16T00:24:06.170Z,99.60
2018-02-16T00:26:33.200Z,99.70
2018-02-16T00:29:02.167Z,99.40
2018-02-16T00:31:28.720Z,99.60
2018-02-16T00:33:55.131Z,99.40
2018-02-16T00:36:21.311Z,99.50
2018-02-16T00:38:51.168Z,99.90
2018-02-16T00:44:21.105Z,99.40
2018-02-16T00:49:51.532Z,99.90
2018-02-16T00:52:20.975Z,99.90
2018-02-16T00:55:08.095Z,99.90
2018-02-16T00:57:34.760Z,99.80
2018-02-16T01:00:02.668Z,99.90
2018-02-16T01:02:29.439Z,99.90
2018-02-16T01:04:58.070Z,99.90
2018-02-16T01:07:24.918Z,99.70
2018-02-16T01:09:52.638Z,99.90
2018-02-16T01:12:19.120Z,99.90
2018-02-16T01:14:46.623Z,99.90
2018-02-16T01:17:13.763Z,99.90
2018-02-16T01:19:40.222Z,99.90
2018-02-16T01:22:06.873Z,99.90
2018-02-16T01:24:34.382Z,99.90
2018-02-16T01:27:01.044Z,99.80
2018-02-16T01:29:28.557Z,99.90
2018-02-16T01:31:55.064Z,99.90
2018-02-16T01:34:22.288Z,99.60
2018-02-16T01:36:53.450Z,99.50
2018-02-16T01:39:19.858Z,99.90
2018-02-16T01:41:46.321Z,99.90
2018-02-16T01:44:13.711Z,99.90
2018-02-16T01:46:40.858Z,99.90
2018-02-16T01:49:08.240Z,99.90
2018-02-16T01:51:34.721Z,99.90
2018-02-16T01:54:01.540Z,99.90
2018-02-16T01:56:28.201Z,99.70
2018-02-16T01:58:54.806Z,99.80
2018-02-16T02:01:21.302Z,99.90
2018-02-16T02:03:47.685Z,99.90
2018-02-16T02:06:14.157Z,99.90
2018-02-16T02:08:40.726Z,99.80
2018-02-16T02:11:07.296Z,99.60
2018-02-16T02:13:33.946Z,99.70
2018-02-16T02:16:01.907Z,99.60
2018-02-16T02:18:30.501Z,99.50
2018-02-16T02:20:56.917Z,99.70
2018-02-16T02:23:25.129Z,99.90
2018-02-16T02:25:51.629Z,99.70
2018-02-16T02:28:18.058Z,99.60
2018-02-16T02:30:44.529Z,99.40
2018-02-16T02:33:11.303Z,99.40
2018-02-16T02:35:37.879Z,99.50
2018-02-16T02:38:06.075Z,99.40
2018-02-16T02:40:32.431Z,99.40
2018-02-16T02:42:58.845Z,99.70
2018-02-16T02:45:26.815Z,99.50
2018-02-16T02:47:53.167Z,99.50
2018-02-16T02:50:19.498Z,99.30
2018-02-16T02:52:45.905Z,99.40
2018-02-16T02:55:12.286Z,99.40
2018-02-16T02:57:38.650Z,99.40
2018-02-16T03:00:06.000Z,99.50
2018-02-16T03:02:32.342Z,99.60
2018-02-16T03:04:58.700Z,99.50
2018-02-16T03:07:25.170Z,99.20
2018-02-16T03:09:51.398Z,99.30
2018-02-16T03:12:17.756Z,99.30
2018-02-16T03:14:44.986Z,99.20
2018-02-16T03:17:12.615Z,99.20
2018-02-16T03:19:45.454Z,99.20
2018-02-16T03:22:12.287Z,99.20
2018-02-16T03:24:38.725Z,99.20
2018-02-16T03:27:05.584Z,99.20
2018-02-16T03:29:33.888Z,99.20
2018-02-16T03:32:00.489Z,99.20
2018-02-16T03:34:28.146Z,99.20
2018-02-16T03:36:54.698Z,99.10
2018-02-16T03:39:20.938Z,99.20
2018-02-16T03:41:47.422Z,99.00
2018-02-16T03:44:13.802Z,99.10
2018-02-16T03:46:40.183Z,99.10
2018-02-16T03:49:08.211Z,99.00
2018-02-16T03:51:34.650Z,99.00
2018-02-16T03:54:01.193Z,99.10
2018-02-16T03:56:28.623Z,99.10
2018-02-16T03:58:55.255Z,99.00
2018-02-16T04:01:21.676Z,99.10
2018-02-16T04:03:48.026Z,99.00
2018-02-16T04:06:15.268Z,98.90
2018-02-16T04:08:43.506Z,98.90
2018-02-16T04:11:17.291Z,99.00
2018-02-16T04:13:47.638Z,99.00
2018-02-16T04:16:15.898Z,99.00
2018-02-16T04:18:44.494Z,99.10
2018-02-16T04:21:12.582Z,99.10
2018-02-16T04:23:40.192Z,99.00
2018-02-16T04:26:07.401Z,99.10
2018-02-16T04:28:37.747Z,99.10
2018-02-16T04:31:04.243Z,99.10
2018-02-16T04:33:30.627Z,99.10
2018-02-16T04:35:57.224Z,99.20
2018-02-16T04:38:25.541Z,99.10
2018-02-16T04:40:55.108Z,99.30
2018-02-16T04:43:21.447Z,99.30
2018-02-16T04:45:48.664Z,99.50
2018-02-16T04:48:15.926Z,99.20
2018-02-16T04:50:42.927Z,99.30
2018-02-16T04:53:09.330Z,99.30
2018-02-16T04:55:36.748Z,99.20
2018-02-16T04:58:03.312Z,99.30
2018-02-16T05:00:30.822Z,99.20
2018-02-16T05:02:59.369Z,99.20
2018-02-16T05:05:25.637Z,99.10
2018-02-16T05:07:51.911Z,99.10
2018-02-16T05:10:18.216Z,99.10
2018-02-16T05:12:45.303Z,99.20
2018-02-16T05:15:12.435Z,99.10
2018-02-16T05:17:38.913Z,99.10
2018-02-16T05:20:05.256Z,99.10
2018-02-16T05:22:33.927Z,99.20
2018-02-16T05:25:01.407Z,99.10
2018-02-16T05:30:14.387Z,99.10
2018-02-16T05:32:46.513Z,99.10
2018-02-16T05:35:13.407Z,99.10
2018-02-16T05:37:41.029Z,99.20
2018-02-16T05:40:10.010Z,99.10
2018-02-16T05:42:37.576Z,99.10
2018-02-16T05:45:04.802Z,99.20
2018-02-16T05:47:34.121Z,99.10
2018-02-16T05:50:01.692Z,99.10
2018-02-16T05:52:29.894Z,99.00
2018-02-16T05:54:56.825Z,99.20
2018-02-16T05:57:27.795Z,99.20
2018-02-16T05:59:55.364Z,99.20
2018-02-16T06:02:22.795Z,99.20
2018-02-16T06:04:50.096Z,99.10
2018-02-16T06:07:16.535Z,99.30
2018-02-16T06:09:45.719Z,99.40
2018-02-16T06:12:12.378Z,99.30
2018-02-16T06:14:39.008Z,99.30
2018-02-16T06:17:05.500Z,99.10
2018-02-16T06:19:33.271Z,99.10
2018-02-16T06:22:00.914Z,99.10
2018-02-16T06:24:27.457Z,99.40
2018-02-16T06:26:54.366Z,99.20
2018-02-16T06:29:21.024Z,99.00
2018-02-16T06:31:47.428Z,99.20
2018-02-16T06:34:16.217Z,99.30
2018-02-16T06:36:43.367Z,99.10
2018-02-16T06:39:09.934Z,99.20
2018-02-16T06:41:37.346Z,99.20
2018-02-16T06:44:04.679Z,99.10
2018-02-16T06:46:31.466Z,99.20
2018-02-16T06:48:58.131Z,99.40
2018-02-16T06:51:24.751Z,99.30
2018-02-16T06:53:51.258Z,99.20
2018-02-16T06:56:17.611Z,99.30
2018-02-16T06:58:44.065Z,99.30
2018-02-16T07:01:10.692Z,99.50
2018-02-16T07:03:37.809Z,99.20
2018-02-16T07:06:04.458Z,99.40
2018-02-16T07:08:31.955Z,99.50
2018-02-16T07:10:59.555Z,99.40
2018-02-16T07:13:26.410Z,99.50
2018-02-16T07:15:53.022Z,99.30
2018-02-16T07:18:20.419Z,99.40
2018-02-16T07:20:46.845Z,99.40
2018-02-16T07:23:14.317Z,99.40
2018-02-16T07:25:42.636Z,99.40
2018-02-16T07:28:09.388Z,99.40
2018-02-16T07:30:37.210Z,99.40
2018-02-16T07:33:03.794Z,99.30
2018-02-16T07:35:33.578Z,99.50
2018-02-16T07:38:02.762Z,99.40
2018-02-16T07:40:41.394Z,99.40
2018-02-16T07:43:17.954Z,99.30
2018-02-16T07:45:44.364Z,99.40
2018-02-16T07:48:12.466Z,99.50
2018-02-16T07:50:39.763Z,99.40
2018-02-16T07:53:07.015Z,99.40
2018-02-16T07:55:36.055Z,99.40
2018-02-16T07:58:04.525Z,99.40
2018-02-16T08:00:30.715Z,99.10
2018-02-16T08:02:58.409Z,99.20
2018-02-16T08:08:24.743Z,99.50
2018-02-16T08:13:48.811Z,99.40
2018-02-16T08:16:15.551Z,99.50
2018-02-16T08:18:44.351Z,99.40
2018-02-16T08:21:11.083Z,99.70
2018-02-16T08:23:39.057Z,99.30
2018-02-16T08:26:15.904Z,99.30
2018-02-16T08:28:46.574Z,99.30
2018-02-16T08:31:13.554Z,99.50
2018-02-16T08:33:41.738Z,99.30
2018-02-16T08:36:09.264Z,99.30
2018-02-16T08:38:36.473Z,99.30
2018-02-16T08:41:04.037Z,99.30
2018-02-16T08:43:31.994Z,99.30
2018-02-16T08:45:59.699Z,99.30
2018-02-16T08:48:26.629Z,99.30
2018-02-16T08:50:55.888Z,99.10
2018-02-16T08:53:22.859Z,99.00
2018-02-16T08:55:56.829Z,99.10
2018-02-16T08:58:26.264Z,99.00
2018-02-16T09:03:46.521Z,99.00
2018-02-16T09:06:14.645Z,98.90
2018-02-16T09:08:44.814Z,99.10
2018-02-16T09:11:18.954Z,98.90
2018-02-16T09:13:46.357Z,98.90
2018-02-16T09:16:13.657Z,99.00
2018-02-16T09:18:42.005Z,98.90
2018-02-16T09:21:11.315Z,99.00
2018-02-16T09:23:42.650Z,98.90
2018-02-16T09:26:09.878Z,98.90
2018-02-16T09:28:36.419Z,98.80
2018-02-16T09:31:21.512Z,98.80
2018-02-16T09:33:54.432Z,98.90
2018-02-16T09:36:21.094Z,98.60
2018-02-16T09:38:48.642Z,98.70
2018-02-16T09:41:15.292Z,98.80
2018-02-16T09:43:46.432Z,98.40
2018-02-16T09:46:14.296Z,98.30
2018-02-16T09:48:40.786Z,98.40
2018-02-16T09:51:07.377Z,98.50
2018-02-16T09:53:34.016Z,98.90
2018-02-16T09:58:40.688Z,99.00
2018-02-16T10:01:07.317Z,98.80
2018-02-16T10:03:33.877Z,98.90
2018-02-16T10:06:00.409Z,98.40
2018-02-16T10:08:27.027Z,98.40
2018-02-16T10:10:57.683Z,98.70
2018-02-16T10:13:25.034Z,98.80
2018-02-16T10:15:51.480Z,98.80
2018-02-16T10:18:17.811Z,98.70
2018-02-16T10:20:45.183Z,98.50
2018-02-16T10:23:11.814Z,98.10
2018-02-16T10:25:38.322Z,98.10
2018-02-16T10:28:09.295Z,98.40
2018-02-16T10:30:38.696Z,98.10
2018-02-16T10:33:05.566Z,98.10
2018-02-16T10:35:34.106Z,97.90
2018-02-16T10:38:01.957Z,98.20
2018-02-16T10:40:29.126Z,98.10
2018-02-16T10:43:02.945Z,97.90
2018-02-16T10:45:31.379Z,98.20
2018-02-16T10:47:58.198Z,98.30
2018-02-16T10:50:25.938Z,97.90
2018-02-16T10:52:52.442Z,97.90
2018-02-16T10:55:18.917Z,96.20
2018-02-16T10:57:48.910Z,96.30
2018-02-16T11:00:16.196Z,95.60
2018-02-16T11:02:49.191Z,95.60
2018-02-16T11:05:16.731Z,96.10
2018-02-16T11:07:54.066Z,95.90
2018-02-16T11:10:20.529Z,95.50
2018-02-16T11:12:46.969Z,95.50
2018-02-16T11:15:14.135Z,95.70
2018-02-16T11:17:40.843Z,95.80
2018-02-16T11:20:08.493Z,95.00
2018-02-16T11:22:36.083Z,93.50
2018-02-16T11:25:08.293Z,94.40
2018-02-16T11:27:34.965Z,93.30
2018-02-16T11:30:04.163Z,88.90
2018-02-16T11:32:31.155Z,89.60
2018-02-16T11:34:57.978Z,90.10
2018-02-16T11:37:33.287Z,88.60
2018-02-16T11:40:00.099Z,87.90
2018-02-16T11:42:26.684Z,88.70
2018-02-16T11:44:54.591Z,84.10
2018-02-16T11:47:21.423Z,83.90
2018-02-16T11:49:48.636Z,77.50
2018-02-16T11:52:19.086Z,77.40
2018-02-16T11:54:45.731Z,77.00
2018-02-16T11:57:12.354Z,81.70
2018-02-16T11:59:39.103Z,82.90
2018-02-16T12:02:07.255Z,80.70
2018-02-16T12:04:35.347Z,74.50
2018-02-16T12:07:05.745Z,72.20
2018-02-16T12:09:33.286Z,70.20
2018-02-16T12:12:01.440Z,71.70
2018-02-16T12:14:30.290Z,64.70
2018-02-16T12:16:58.691Z,64.70
2018-02-16T12:19:26.344Z,68.40
2018-02-16T12:21:57.379Z,68.30
2018-02-16T12:24:24.943Z,68.00
2018-02-16T12:26:51.430Z,71.00
2018-02-16T12:29:17.890Z,65.10
2018-02-16T12:31:44.634Z,58.10
2018-02-16T12:34:13.431Z,53.40
2018-02-16T12:36:43.304Z,49.60
2018-02-16T12:39:11.735Z,52.30
2018-02-16T12:41:39.175Z,55.50
2018-02-16T12:44:07.668Z,56.80
2018-02-16T12:46:34.437Z,51.90
2018-02-16T12:49:05.550Z,50.90
2018-02-16T12:51:33.059Z,47.30
2018-02-16T12:54:01.048Z,45.60
2018-02-16T12:56:27.921Z,41.70
2018-02-16T12:58:57.681Z,42.70
2018-02-16T13:01:30.491Z,40.20
2018-02-16T13:03:57.403Z,39.30
2018-02-16T13:06:24.863Z,39.40
2018-02-16T13:08:51.350Z,39.30
2018-02-16T13:11:17.845Z,39.50
2018-02-16T13:13:44.525Z,38.80
2018-02-16T13:16:12.035Z,35.50
2018-02-16T13:18:45.524Z,36.90
2018-02-16T13:21:14.306Z,35.20
2018-02-16T13:23:47.527Z,30.80
2018-02-16T13:26:16.397Z,31.70
2018-02-16T13:28:46.688Z,30.20
2018-02-16T13:31:16.817Z,30.00
2018-02-16T13:33:50.307Z,33.30
2018-02-16T13:36:16.633Z,31.40
2018-02-16T13:38:50.311Z,30.50
2018-02-16T13:47:36.382Z,27.00
2018-02-16T13:50:06.285Z,28.90
2018-02-16T13:52:48.545Z,29.80
2018-02-16T13:58:26.360Z,28.40
2018-02-16T14:03:54.989Z,32.80
2018-02-16T14:09:38.389Z,27.80
2018-02-16T14:12:07.941Z,26.40
2018-02-16T14:14:49.450Z,30.00
2018-02-16T14:26:04.183Z,25.60
2018-02-16T14:28:44.802Z,24.70
2018-02-16T14:37:35.657Z,23.20
2018-02-16T14:40:18.089Z,25.30
2018-02-16T15:07:35.445Z,25.60
2018-02-16T15:10:04.747Z,25.80
2018-02-16T15:12:37.306Z,25.00
2018-02-16T15:15:05.549Z,26.70
2018-02-16T15:20:53.626Z,24.60
2018-02-16T15:26:31.161Z,23.60
2018-02-16T15:32:08.600Z,23.10
2018-02-16T15:34:46.802Z,24.70
2018-02-16T15:37:16.054Z,24.20
2018-02-16T15:39:43.766Z,22.90
2018-02-16T15:42:17.075Z,24.00
2018-02-16T15:44:44.438Z,23.50
2018-02-16T15:47:18.680Z,23.70
2018-02-16T15:49:46.728Z,25.00
2018-02-16T15:52:16.447Z,25.10
2018-02-16T15:54:43.008Z,24.30
2018-02-16T15:57:17.781Z,24.30
2018-02-16T15:59:46.132Z,24.00
2018-02-16T16:02:13.042Z,25.10
2018-02-16T16:04:40.426Z,26.70
2018-02-16T16:07:11.022Z,25.20
2018-02-16T16:09:39.876Z,25.20
2018-02-16T16:12:09.995Z,25.40
2018-02-16T16:14:38.015Z,25.70
2018-02-16T16:17:04.568Z,25.80
2018-02-16T16:19:31.448Z,27.00
2018-02-16T16:21:58.446Z,25.30
2018-02-16T16:24:25.108Z,29.30
2018-02-16T16:26:51.580Z,28.10
2018-02-16T16:29:17.900Z,27.10
2018-02-16T16:31:45.329Z,27.40
2018-02-16T16:34:12.040Z,26.60
2018-02-16T16:36:38.580Z,27.20
2018-02-16T16:39:04.913Z,27.00
2018-02-16T16:41:31.345Z,28.10
2018-02-16T16:43:57.890Z,27.70
2018-02-16T16:46:24.357Z,29.00
2018-02-16T16:48:50.784Z,27.80
2018-02-16T16:51:17.353Z,28.80
2018-02-16T16:53:43.930Z,27.40
2018-02-16T16:56:10.342Z,30.80
2018-02-16T16:58:36.806Z,28.60
2018-02-16T17:01:03.283Z,32.10
2018-02-16T17:03:29.951Z,31.60
2018-02-16T17:05:56.542Z,34.10
2018-02-16T17:08:24.170Z,35.80
2018-02-16T17:10:50.601Z,40.40
2018-02-16T17:13:17.442Z,34.30
2018-02-16T17:15:43.851Z,38.30
2018-02-16T17:18:10.318Z,40.30
2018-02-16T17:20:38.095Z,35.90
2018-02-16T17:23:04.724Z,37.20
2018-02-16T17:25:32.713Z,43.70
2018-02-16T17:27:59.831Z,45.90
2018-02-16T17:30:26.176Z,49.80
2018-02-16T17:32:52.674Z,45.80
2018-02-16T17:35:19.082Z,50.00
2018-02-16T17:37:46.858Z,50.00
2018-02-16T17:40:13.291Z,50.70
2018-02-16T17:42:39.918Z,52.90
2018-02-16T17:45:07.140Z,54.40
2018-02-16T17:47:33.665Z,55.80
2018-02-16T17:50:00.079Z,54.80
2018-02-16T17:52:26.470Z,57.80
2018-02-16T17:54:53.574Z,58.20
2018-02-16T17:57:19.899Z,58.10
2018-02-16T17:59:46.422Z,60.70
2018-02-16T18:02:12.754Z,61.70
2018-02-16T18:04:39.901Z,65.80
2018-02-16T18:07:06.381Z,65.60
2018-02-16T18:09:32.874Z,70.90
2018-02-16T18:11:59.478Z,70.10
2018-02-16T18:14:25.874Z,67.40
2018-02-16T18:16:52.426Z,69.80
2018-02-16T18:19:20.863Z,70.40
2018-02-16T18:21:49.520Z,70.60
2018-02-16T18:24:21.778Z,69.40
2018-02-16T18:26:48.190Z,67.10
2018-02-16T18:29:14.589Z,67.60
2018-02-16T18:31:41.039Z,63.80
2018-02-16T18:34:07.338Z,66.70
2018-02-16T18:36:33.565Z,70.00
2018-02-16T18:38:59.801Z,68.80
2018-02-16T18:41:27.491Z,76.50
2018-02-16T18:43:53.770Z,76.60
2018-02-16T18:46:19.914Z,74.20
2018-02-16T18:48:46.167Z,74.70
2018-02-16T18:51:12.322Z,78.70
2018-02-16T18:53:39.267Z,78.00
2018-02-16T18:56:05.535Z,78.00
2018-02-16T18:58:31.736Z,77.20
2018-02-16T19:00:57.887Z,81.90
2018-02-16T19:03:24.174Z,84.90
2018-02-16T19:05:50.386Z,77.70
2018-02-16T19:08:17.381Z,76.80
2018-02-16T19:10:43.567Z,84.30
2018-02-16T19:13:09.726Z,85.00
2018-02-16T19:15:37.288Z,87.50
2018-02-16T19:18:04.174Z,88.10
2018-02-16T19:20:31.508Z,87.90
2018-02-16T19:22:57.672Z,85.00
2018-02-16T19:25:23.882Z,86.90
2018-02-16T19:27:50.120Z,90.40
2018-02-16T19:30:16.794Z,87.40
2018-02-16T19:32:42.953Z,87.30
2018-02-16T19:35:09.104Z,89.30
2018-02-16T19:37:35.277Z,81.10
2018-02-16T19:40:01.982Z,90.60
2018-02-16T19:42:28.233Z,92.10
2018-02-16T19:44:54.546Z,91.80
2018-02-16T19:47:21.178Z,90.00
2018-02-16T19:49:48.642Z,91.50
2018-02-16T19:52:14.761Z,91.80
2018-02-16T19:54:42.063Z,91.30
2018-02-16T19:57:08.332Z,91.30
2018-02-16T19:59:35.100Z,90.30
2018-02-16T20:02:01.438Z,87.40
2018-02-16T20:04:27.662Z,92.70
2018-02-16T20:06:54.212Z,94.40
2018-02-16T20:09:23.824Z,93.20
2018-02-16T20:11:52.789Z,92.20
2018-02-16T20:14:18.939Z,92.80
2018-02-16T20:16:45.861Z,91.30
2018-02-16T20:19:12.391Z,91.20
2018-02-16T20:21:38.904Z,92.00
2018-02-16T20:24:05.079Z,92.90
2018-02-16T20:26:31.303Z,94.00
2018-02-16T20:28:57.588Z,91.50
2018-02-16T20:31:24.404Z,94.20
2018-02-16T20:33:50.950Z,94.30
2018-02-16T20:36:17.139Z,94.40
2018-02-16T20:38:43.289Z,93.10
2018-02-16T20:41:09.804Z,93.00
2018-02-16T20:43:36.263Z,91.80
2018-02-16T20:46:04.189Z,90.50
2018-02-16T20:48:30.742Z,93.00
2018-02-16T20:50:57.074Z,94.30
2018-02-16T20:53:23.521Z,94.30
2018-02-16T20:55:51.145Z,92.40
2018-02-16T20:58:17.267Z,92.40
2018-02-16T21:00:43.444Z,93.20
2018-02-16T21:03:09.788Z,92.90
2018-02-16T21:05:36.149Z,93.50
2018-02-16T21:08:02.494Z,93.80
2018-02-16T21:10:28.861Z,94.80
2018-02-16T21:12:55.209Z,95.00
2018-02-16T21:15:22.409Z,94.20
2018-02-16T21:17:48.683Z,94.10
2018-02-16T21:20:15.653Z,95.50
2018-02-16T21:22:41.902Z,95.50
2018-02-16T21:25:08.249Z,95.60
2018-02-16T21:27:34.671Z,95.50
2018-02-16T21:30:01.087Z,94.40
2018-02-16T21:32:27.496Z,96.20
2018-02-16T21:34:53.885Z,95.70
2018-02-16T21:37:20.057Z,94.10
2018-02-16T21:39:46.486Z,95.10
2018-02-16T21:42:12.855Z,93.90
2018-02-16T21:44:38.977Z,94.20
2018-02-16T21:47:05.157Z,94.30
2018-02-16T21:49:31.481Z,93.60
2018-02-16T21:51:58.583Z,93.80
2018-02-16T21:54:24.780Z,93.90
2018-02-16T21:56:50.939Z,93.70
2018-02-16T21:59:17.422Z,92.70
2018-02-16T22:01:43.829Z,94.00
2018-02-16T22:04:10.160Z,94.30
2018-02-16T22:06:37.275Z,91.60
2018-02-16T22:09:03.606Z,91.50
2018-02-16T22:11:29.962Z,91.00
2018-02-16T22:13:57.030Z,93.70
2018-02-16T22:16:23.173Z,93.90
2018-02-16T22:18:49.335Z,92.50
2018-02-16T22:21:15.479Z,92.40
2018-02-16T22:23:42.406Z,93.00
2018-02-16T22:26:08.603Z,93.20
2018-02-16T22:28:35.845Z,94.10
2018-02-16T22:31:02.705Z,92.60
2018-02-16T22:33:28.957Z,92.60
2018-02-16T22:35:55.282Z,93.70
2018-02-16T22:38:22.290Z,93.80
2018-02-16T22:40:48.720Z,93.80
2018-02-16T22:43:14.942Z,95.20
2018-02-16T22:45:41.066Z,95.80
2018-02-16T22:48:09.052Z,95.00
2018-02-16T22:50:36.567Z,95.00
2018-02-16T22:53:02.730Z,94.90
2018-02-16T22:55:29.898Z,95.10
2018-02-16T22:57:56.137Z,95.40
2018-02-16T23:00:22.299Z,95.50
2018-02-16T23:02:49.203Z,94.80
2018-02-16T23:05:15.425Z,94.80
2018-02-16T23:07:41.580Z,95.00
2018-02-16T23:10:07.789Z,94.10
2018-02-16T23:12:33.974Z,94.60
2018-02-16T23:15:00.120Z,95.00
2018-02-16T23:17:26.296Z,94.10
2018-02-16T23:19:52.442Z,95.30
2018-02-16T23:22:18.631Z,94.00
2018-02-16T23:24:44.788Z,93.40
2018-02-16T23:27:11.050Z,94.30
2018-02-16T23:29:37.281Z,95.00
2018-02-16T23:32:03.458Z,95.70
2018-02-16T23:34:29.687Z,95.30
2018-02-16T23:36:55.853Z,95.30
2018-02-16T23:39:22.094Z,94.30
2018-02-16T23:41:48.228Z,95.10
2018-02-16T23:44:14.407Z,94.10
2018-02-16T23:46:42.468Z,95.20
2018-02-16T23:49:08.670Z,95.30
2018-02-16T23:51:35.638Z,94.70
2018-02-16T23:54:01.911Z,94.60
2018-02-16T23:56:28.071Z,94.80
2018-02-16T23:58:54.338Z,95.10
